createdAt,value
2022-10-26T00:01:07.617Z,86.70
2022-10-26T00:03:36.149Z,86.60
2022-10-26T00:06:30.365Z,86.60
2022-10-26T00:08:58.209Z,86.60
2022-10-26T00:11:25.258Z,86.60
2022-10-26T00:13:52.381Z,86.70
2022-10-26T00:16:23.533Z,86.90
2022-10-26T00:18:50.894Z,86.90
2022-10-26T00:21:18.834Z,86.70
2022-10-26T00:23:45.857Z,86.60
2022-10-26T00:26:13.033Z,86.50
2022-10-26T00:28:40.091Z,86.50
2022-10-26T00:31:12.566Z,86.90
2022-10-26T00:33:39.625Z,87.40
2022-10-26T00:36:09.204Z,87.70
2022-10-26T00:38:37.014Z,87.70
2022-10-26T00:41:04.263Z,88.00
2022-10-26T00:43:31.280Z,88.10
2022-10-26T00:45:59.696Z,88.20
2022-10-26T00:48:35.942Z,88.30
2022-10-26T00:51:08.930Z,88.30
2022-10-26T00:53:36.555Z,88.30
2022-10-26T00:56:04.124Z,88.40
2022-10-26T00:58:32.527Z,88.20
2022-10-26T01:00:59.638Z,88.20
2022-10-26T01:03:28.042Z,88.20
2022-10-26T01:05:57.470Z,88.90
2022-10-26T01:08:25.638Z,88.30
2022-10-26T01:10:52.875Z,88.20
2022-10-26T01:13:20.431Z,88.20
2022-10-26T01:16:07.138Z,88.20
2022-10-26T01:18:52.724Z,88.20
2022-10-26T01:22:01.139Z,88.20
2022-10-26T01:24:56.380Z,88.30
2022-10-26T01:27:34.632Z,88.30
2022-10-26T01:30:16.445Z,88.50
2022-10-26T01:33:10.792Z,88.40
2022-10-26T01:35:50.719Z,88.50
2022-10-26T01:38:45.615Z,88.40
2022-10-26T01:41:19.447Z,88.80
2022-10-26T01:43:53.661Z,88.80
2022-10-26T01:46:23.736Z,88.50
2022-10-26T01:48:55.361Z,88.50
2022-10-26T01:51:23.404Z,88.60
2022-10-26T01:53:50.736Z,88.70
2022-10-26T01:56:26.748Z,88.80
2022-10-26T01:59:18.272Z,88.80
2022-10-26T02:01:48.334Z,89.10
2022-10-26T02:04:33.068Z,89.30
2022-10-26T02:07:31.912Z,89.40
2022-10-26T02:10:22.716Z,89.50
2022-10-26T02:13:04.704Z,89.50
2022-10-26T02:15:58.504Z,89.80
2022-10-26T02:18:39.412Z,89.60
2022-10-26T02:21:12.833Z,89.50
2022-10-26T02:23:42.460Z,89.40
2022-10-26T02:26:13.559Z,89.40
2022-10-26T02:28:47.078Z,89.40
2022-10-26T02:31:16.351Z,89.40
2022-10-26T02:33:50.452Z,89.30
2022-10-26T02:36:25.446Z,89.40
2022-10-26T02:38:53.889Z,89.40
2022-10-26T02:41:23.433Z,89.40
2022-10-26T02:44:14.630Z,89.50
2022-10-26T02:46:42.718Z,89.40
2022-10-26T02:49:10.485Z,89.60
2022-10-26T02:54:56.754Z,90.00
2022-10-26T02:57:32.990Z,90.00
2022-10-26T03:00:01.329Z,90.00
2022-10-26T03:02:30.134Z,90.00
2022-10-26T03:05:06.450Z,90.00
2022-10-26T03:07:33.494Z,89.90
2022-10-26T03:10:00.534Z,89.80
2022-10-26T03:12:27.579Z,89.70
2022-10-26T03:14:54.618Z,89.60
2022-10-26T03:17:21.651Z,89.40
2022-10-26T03:19:48.662Z,89.20
2022-10-26T03:22:15.688Z,89.00
2022-10-26T03:24:42.721Z,89.00
2022-10-26T03:27:09.762Z,88.90
2022-10-26T03:29:36.795Z,89.00
2022-10-26T03:32:04.047Z,89.00
2022-10-26T03:34:31.102Z,89.00
2022-10-26T03:36:58.460Z,89.00
2022-10-26T03:39:25.587Z,89.00
2022-10-26T03:44:24.611Z,88.90
2022-10-26T03:46:51.629Z,89.00
2022-10-26T03:49:18.670Z,89.00
2022-10-26T03:51:45.743Z,88.80
2022-10-26T03:54:12.784Z,88.70
2022-10-26T03:56:39.848Z,88.70
2022-10-26T03:59:06.967Z,88.70
2022-10-26T04:01:34.032Z,88.70
2022-10-26T04:04:01.120Z,88.60
2022-10-26T04:06:28.195Z,88.70
2022-10-26T04:09:01.795Z,88.60
2022-10-26T04:11:29.675Z,88.60
2022-10-26T04:13:59.575Z,88.70
2022-10-26T04:16:31.057Z,88.70
2022-10-26T04:19:00.828Z,88.80
2022-10-26T04:21:28.078Z,88.80
2022-10-26T04:23:55.112Z,89.10
2022-10-26T04:26:22.225Z,89.10
2022-10-26T04:28:49.276Z,89.20
2022-10-26T04:31:16.417Z,89.40
2022-10-26T04:33:43.499Z,89.40
2022-10-26T04:36:10.581Z,89.40
2022-10-26T04:38:37.645Z,89.40
2022-10-26T04:41:04.833Z,89.40
2022-10-26T04:43:31.888Z,89.40
2022-10-26T04:45:58.977Z,89.40
2022-10-26T04:48:26.127Z,89.40
2022-10-26T04:50:53.237Z,89.40
2022-10-26T04:53:20.329Z,89.50
2022-10-26T04:55:47.432Z,89.40
2022-10-26T04:58:14.498Z,89.50
2022-10-26T05:00:41.526Z,89.40
2022-10-26T05:03:09.641Z,89.10
2022-10-26T05:05:37.546Z,89.10
2022-10-26T05:08:04.941Z,89.10
2022-10-26T05:10:32.141Z,89.00
2022-10-26T05:13:00.248Z,89.20
2022-10-26T05:15:27.942Z,88.90
2022-10-26T05:18:03.353Z,88.90
2022-10-26T05:20:33.061Z,88.80
2022-10-26T05:23:02.382Z,88.70
2022-10-26T05:25:31.761Z,88.70
2022-10-26T05:28:04.618Z,88.50
2022-10-26T05:30:32.186Z,88.40
2022-10-26T05:33:02.055Z,88.30
2022-10-26T05:35:29.682Z,88.30
2022-10-26T05:37:56.914Z,88.30
2022-10-26T05:40:24.147Z,88.20
2022-10-26T05:42:51.728Z,88.10
2022-10-26T05:45:19.268Z,88.00
2022-10-26T05:47:46.962Z,87.90
2022-10-26T05:50:14.547Z,88.10
2022-10-26T05:52:46.155Z,88.20
2022-10-26T05:55:16.119Z,88.30
2022-10-26T05:57:43.887Z,88.40
2022-10-26T06:00:17.176Z,88.50
2022-10-26T06:03:07.419Z,88.50
2022-10-26T06:05:45.711Z,88.70
2022-10-26T06:08:13.050Z,88.90
2022-10-26T06:10:40.522Z,89.60
2022-10-26T06:13:07.849Z,89.10
2022-10-26T06:15:45.099Z,89.10
2022-10-26T06:18:59.628Z,89.20
2022-10-26T06:21:43.943Z,89.20
2022-10-26T06:24:22.284Z,89.20
2022-10-26T06:26:57.023Z,89.30
2022-10-26T06:29:30.235Z,89.30
2022-10-26T06:31:57.560Z,89.20
2022-10-26T06:34:29.264Z,89.30
2022-10-26T06:36:58.223Z,89.40
2022-10-26T06:39:29.527Z,89.50
2022-10-26T06:41:57.777Z,89.40
2022-10-26T06:44:25.901Z,89.20
2022-10-26T06:46:56.784Z,89.10
2022-10-26T06:49:35.043Z,89.00
2022-10-26T06:52:20.623Z,88.60
2022-10-26T06:54:52.253Z,87.60
2022-10-26T06:57:21.636Z,88.40
2022-10-26T06:59:53.009Z,88.40
2022-10-26T07:02:20.924Z,88.60
2022-10-26T07:04:48.140Z,89.00
2022-10-26T07:07:18.866Z,89.10
2022-10-26T07:09:46.208Z,89.10
2022-10-26T07:12:13.320Z,89.00
2022-10-26T07:14:40.380Z,89.20
2022-10-26T07:17:08.215Z,89.30
2022-10-26T07:19:35.349Z,89.30
2022-10-26T07:22:03.091Z,89.40
2022-10-26T07:24:31.105Z,89.50
2022-10-26T07:26:58.880Z,89.60
2022-10-26T07:29:28.097Z,89.60
2022-10-26T07:31:55.387Z,89.60
2022-10-26T07:34:22.453Z,89.50
2022-10-26T07:36:51.385Z,89.40
2022-10-26T07:39:18.577Z,89.40
2022-10-26T07:41:46.650Z,89.40
2022-10-26T07:44:13.745Z,89.40
2022-10-26T07:46:40.930Z,89.40
2022-10-26T07:49:08.241Z,89.50
2022-10-26T07:51:35.346Z,89.50
2022-10-26T07:54:02.610Z,89.40
2022-10-26T07:56:29.870Z,89.50
2022-10-26T07:58:58.027Z,89.50
2022-10-26T08:01:25.259Z,89.50
2022-10-26T08:03:56.550Z,89.80
2022-10-26T08:06:24.161Z,89.90
2022-10-26T08:08:52.898Z,89.90
2022-10-26T08:11:21.346Z,89.90
2022-10-26T08:13:52.339Z,90.00
2022-10-26T08:16:19.735Z,90.00
2022-10-26T08:18:51.053Z,90.00
2022-10-26T08:21:22.101Z,90.00
2022-10-26T08:23:57.358Z,89.70
2022-10-26T08:26:24.455Z,88.70
2022-10-26T08:28:52.055Z,88.90
2022-10-26T08:31:20.091Z,89.00
2022-10-26T08:33:47.135Z,88.20
2022-10-26T08:36:19.830Z,87.80
2022-10-26T08:38:49.958Z,87.90
2022-10-26T08:41:17.496Z,87.80
2022-10-26T08:43:54.587Z,89.30
2022-10-26T08:46:41.867Z,88.70
2022-10-26T08:49:27.023Z,88.90
2022-10-26T08:51:59.854Z,89.10
2022-10-26T08:54:38.371Z,89.30
2022-10-26T08:57:15.648Z,88.10
2022-10-26T09:00:00.253Z,87.10
2022-10-26T09:02:27.582Z,87.90
2022-10-26T09:04:57.221Z,87.90
2022-10-26T09:07:53.384Z,87.20
2022-10-26T09:11:02.319Z,86.60
2022-10-26T09:14:22.044Z,87.50
2022-10-26T09:17:02.592Z,87.40
2022-10-26T09:20:06.412Z,87.60
2022-10-26T09:22:48.282Z,87.50
2022-10-26T09:25:22.006Z,86.90
2022-10-26T09:27:54.792Z,86.90
2022-10-26T09:30:23.185Z,87.40
2022-10-26T09:32:58.871Z,87.70
2022-10-26T09:35:40.029Z,87.50
2022-10-26T09:38:26.559Z,87.30
2022-10-26T09:41:06.305Z,87.00
2022-10-26T09:46:23.208Z,86.80
2022-10-26T09:51:38.722Z,86.70
2022-10-26T09:54:18.133Z,86.80
2022-10-26T09:56:51.608Z,86.60
2022-10-26T09:59:21.757Z,86.50
2022-10-26T10:01:49.193Z,86.50
2022-10-26T10:04:19.925Z,86.50
2022-10-26T10:07:00.485Z,86.50
2022-10-26T10:09:27.573Z,86.50
2022-10-26T10:11:56.513Z,86.50
2022-10-26T10:14:39.885Z,86.50
2022-10-26T10:17:23.297Z,86.50
2022-10-26T10:19:51.597Z,86.60
2022-10-26T10:22:25.458Z,86.60
2022-10-26T10:24:57.742Z,86.70
2022-10-26T10:27:26.005Z,86.70
2022-10-26T10:29:59.682Z,86.60
2022-10-26T10:32:35.606Z,86.70
2022-10-26T10:35:24.082Z,86.80
2022-10-26T10:37:52.093Z,86.80
2022-10-26T10:40:25.238Z,86.80
2022-10-26T10:43:01.250Z,86.80
2022-10-26T10:45:30.926Z,86.80
2022-10-26T10:48:16.386Z,86.80
2022-10-26T10:51:00.147Z,86.80
2022-10-26T10:53:38.141Z,86.80
2022-10-26T10:56:29.434Z,86.90
2022-10-26T10:59:23.571Z,86.80
2022-10-26T11:02:15.171Z,86.70
2022-10-26T11:05:00.922Z,86.80
2022-10-26T11:07:30.272Z,86.90
2022-10-26T11:10:01.938Z,86.70
2022-10-26T11:12:38.254Z,86.70
2022-10-26T11:15:16.388Z,86.80
2022-10-26T11:18:07.449Z,86.70
2022-10-26T11:20:40.654Z,86.70
2022-10-26T11:23:38.935Z,86.70
2022-10-26T11:26:14.216Z,86.60
2022-10-26T11:28:51.702Z,86.60
2022-10-26T11:31:25.672Z,86.70
2022-10-26T11:34:12.723Z,86.70
2022-10-26T11:36:43.474Z,86.60
2022-10-26T11:39:38.823Z,86.60
2022-10-26T11:42:21.966Z,86.50
2022-10-26T11:45:20.963Z,86.50
2022-10-26T11:48:04.061Z,86.50
2022-10-26T11:50:36.267Z,86.60
2022-10-26T11:53:19.156Z,86.60
2022-10-26T11:55:52.602Z,86.70
2022-10-26T11:58:25.503Z,86.70
2022-10-26T12:01:10.683Z,86.70
2022-10-26T12:03:45.386Z,86.70
2022-10-26T12:06:15.775Z,86.70
2022-10-26T12:08:47.526Z,86.70
2022-10-26T12:11:38.003Z,86.70
2022-10-26T12:14:27.505Z,86.70
2022-10-26T12:17:07.187Z,86.70
2022-10-26T12:19:49.853Z,86.70
2022-10-26T12:22:19.037Z,86.50
2022-10-26T12:25:04.217Z,86.70
2022-10-26T12:27:39.371Z,87.70
2022-10-26T12:30:18.526Z,88.60
2022-10-26T12:32:45.548Z,89.20
2022-10-26T12:35:42.220Z,89.80
2022-10-26T12:38:24.272Z,90.10
2022-10-26T12:41:07.309Z,90.30
2022-10-26T12:43:37.088Z,90.50
2022-10-26T12:46:13.060Z,90.80
2022-10-26T12:48:45.303Z,91.10
2022-10-26T12:51:21.603Z,91.10
2022-10-26T12:54:03.222Z,91.30
2022-10-26T12:56:56.707Z,91.40
2022-10-26T12:59:51.675Z,91.50
2022-10-26T13:02:30.645Z,91.70
2022-10-26T13:05:06.053Z,91.90
2022-10-26T13:07:40.437Z,92.00
2022-10-26T13:10:13.259Z,92.10
2022-10-26T13:12:48.525Z,92.20
2022-10-26T13:15:31.040Z,92.30
2022-10-26T13:18:07.011Z,92.20
2022-10-26T13:20:36.353Z,92.20
2022-10-26T13:23:16.279Z,92.30
2022-10-26T13:26:07.071Z,92.30
2022-10-26T13:28:40.146Z,92.40
2022-10-26T13:31:29.132Z,92.30
2022-10-26T13:34:17.480Z,92.30
2022-10-26T13:36:49.231Z,92.30
2022-10-26T13:39:24.055Z,92.20
2022-10-26T13:41:53.821Z,92.00
2022-10-26T13:44:26.711Z,91.80
2022-10-26T13:47:01.002Z,91.60
2022-10-26T13:49:33.275Z,91.10
2022-10-26T13:52:03.657Z,91.20
2022-10-26T13:54:43.458Z,91.00
2022-10-26T13:57:19.952Z,90.90
2022-10-26T13:59:47.211Z,90.70
2022-10-26T14:02:28.140Z,90.70
2022-10-26T14:05:01.340Z,90.90
2022-10-26T14:07:37.408Z,91.10
2022-10-26T14:10:05.217Z,91.20
2022-10-26T14:12:33.118Z,91.40
2022-10-26T14:15:08.193Z,91.50
2022-10-26T14:17:35.828Z,91.70
2022-10-26T14:20:04.592Z,91.90
2022-10-26T14:22:31.740Z,92.10
2022-10-26T14:25:00.781Z,92.20
2022-10-26T14:27:37.922Z,92.40
2022-10-26T14:30:23.487Z,92.50
2022-10-26T14:32:52.692Z,92.70
2022-10-26T14:35:24.780Z,92.90
2022-10-26T14:38:02.280Z,93.10
2022-10-26T14:40:34.600Z,93.30
2022-10-26T14:43:04.692Z,93.40
2022-10-26T14:45:50.342Z,94.70
2022-10-26T14:48:29.860Z,94.30
2022-10-26T14:51:11.236Z,94.30
2022-10-26T14:53:40.737Z,94.40
2022-10-26T14:56:21.049Z,94.90
2022-10-26T14:58:48.573Z,95.50
2022-10-26T15:01:16.926Z,95.80
2022-10-26T15:03:45.492Z,95.50
2022-10-26T15:06:31.597Z,95.60
2022-10-26T15:09:00.654Z,95.50
2022-10-26T15:11:28.947Z,95.50
2022-10-26T15:13:57.536Z,95.50
2022-10-26T15:16:30.320Z,95.60
2022-10-26T15:19:00.874Z,95.60
2022-10-26T15:21:34.897Z,95.70
2022-10-26T15:24:03.518Z,95.50
2022-10-26T15:26:30.849Z,95.40
2022-10-26T15:28:59.237Z,95.50
2022-10-26T15:31:33.113Z,95.40
2022-10-26T15:34:10.845Z,95.40
2022-10-26T15:36:39.190Z,95.10
2022-10-26T15:39:06.248Z,95.20
2022-10-26T15:41:38.847Z,95.40
2022-10-26T15:44:15.922Z,95.30
2022-10-26T15:46:43.270Z,95.30
2022-10-26T15:49:16.868Z,95.30
2022-10-26T15:51:48.463Z,95.30
2022-10-26T15:54:15.766Z,95.30
2022-10-26T15:56:46.295Z,95.30
2022-10-26T15:59:16.534Z,95.30
2022-10-26T16:01:43.999Z,95.20
2022-10-26T16:04:12.087Z,95.20
2022-10-26T16:06:40.926Z,95.20
2022-10-26T16:09:13.338Z,95.20
2022-10-26T16:11:40.427Z,95.30
2022-10-26T16:14:07.544Z,95.30
2022-10-26T16:16:34.646Z,95.30
2022-10-26T16:19:25.598Z,95.20
2022-10-26T16:21:52.131Z,95.10
2022-10-26T16:24:19.296Z,95.10
2022-10-26T16:26:46.531Z,95.10
2022-10-26T16:29:13.903Z,95.00
2022-10-26T16:31:41.027Z,95.00
2022-10-26T16:34:08.069Z,95.00
2022-10-26T16:36:35.165Z,95.00
2022-10-26T16:41:34.617Z,94.90
2022-10-26T16:44:01.684Z,94.90
2022-10-26T16:46:28.787Z,94.90
2022-10-26T16:48:55.904Z,94.90
2022-10-26T16:51:26.329Z,95.00
2022-10-26T16:53:55.696Z,95.10
2022-10-26T16:56:25.778Z,95.20
2022-10-26T16:58:53.088Z,95.10
2022-10-26T17:01:21.196Z,95.10
2022-10-26T17:03:49.868Z,95.40
2022-10-26T17:06:17.896Z,95.10
2022-10-26T17:08:45.000Z,95.10
2022-10-26T17:11:18.036Z,95.00
2022-10-26T17:13:46.093Z,95.00
2022-10-26T17:16:19.284Z,95.00
2022-10-26T17:18:49.770Z,95.00
2022-10-26T17:21:19.858Z,94.90
2022-10-26T17:23:47.009Z,94.90
2022-10-26T17:26:14.995Z,94.80
2022-10-26T17:28:42.481Z,94.80
2022-10-26T17:31:14.945Z,94.70
2022-10-26T17:33:43.585Z,94.70
2022-10-26T17:36:12.853Z,94.60
2022-10-26T17:38:41.641Z,94.60
2022-10-26T17:41:11.119Z,94.50
2022-10-26T17:43:39.645Z,94.50
2022-10-26T17:46:09.743Z,94.40
2022-10-26T17:48:36.890Z,94.40
2022-10-26T17:51:07.098Z,94.30
2022-10-26T17:53:34.155Z,94.40
2022-10-26T17:56:05.271Z,94.40
2022-10-26T17:58:33.617Z,94.40
2022-10-26T18:01:02.996Z,94.30
2022-10-26T18:03:30.578Z,94.30
2022-10-26T18:05:57.866Z,94.40
2022-10-26T18:08:24.898Z,94.40
2022-10-26T18:10:53.940Z,94.30
2022-10-26T18:13:21.539Z,94.40
2022-10-26T18:15:48.607Z,94.40
2022-10-26T18:18:15.718Z,94.40
2022-10-26T18:20:42.800Z,94.40
2022-10-26T18:23:11.946Z,94.40
2022-10-26T18:25:38.986Z,94.40
2022-10-26T18:28:07.998Z,94.50
2022-10-26T18:30:35.127Z,94.50
2022-10-26T18:33:02.196Z,94.50
2022-10-26T18:35:29.303Z,94.50
2022-10-26T18:37:56.351Z,94.60
2022-10-26T18:40:23.656Z,94.60
2022-10-26T18:42:50.888Z,94.70
2022-10-26T18:45:19.041Z,94.60
2022-10-26T18:47:46.105Z,94.60
2022-10-26T18:50:15.268Z,94.60
2022-10-26T18:52:43.387Z,94.60
2022-10-26T18:55:10.517Z,94.60
2022-10-26T18:57:37.603Z,94.60
2022-10-26T19:00:05.072Z,94.60
2022-10-26T19:02:32.130Z,94.50
2022-10-26T19:04:59.260Z,94.50
2022-10-26T19:07:26.301Z,94.50
2022-10-26T19:09:53.320Z,94.40
2022-10-26T19:12:20.348Z,94.40
2022-10-26T19:14:47.404Z,94.40
2022-10-26T19:17:14.600Z,94.30
2022-10-26T19:19:41.635Z,94.30
2022-10-26T19:22:08.838Z,94.30
2022-10-26T19:24:35.856Z,94.30
2022-10-26T19:27:02.891Z,94.20
2022-10-26T19:29:29.944Z,94.20
2022-10-26T19:31:57.043Z,94.10
2022-10-26T19:34:26.041Z,94.10
2022-10-26T19:36:55.525Z,94.10
2022-10-26T19:39:23.161Z,94.00
2022-10-26T19:41:50.184Z,94.00
2022-10-26T19:44:19.607Z,94.00
2022-10-26T19:46:47.741Z,94.00
2022-10-26T19:49:17.370Z,94.00
2022-10-26T19:51:44.845Z,94.00
2022-10-26T19:54:11.901Z,94.10
2022-10-26T19:56:39.211Z,94.10
2022-10-26T19:59:07.947Z,94.20
2022-10-26T20:01:35.146Z,94.20
2022-10-26T20:04:02.600Z,94.20
2022-10-26T20:06:30.758Z,94.20
2022-10-26T20:08:58.039Z,94.10
2022-10-26T20:11:25.249Z,94.10
2022-10-26T20:13:52.583Z,94.10
2022-10-26T20:16:19.662Z,94.10
2022-10-26T20:18:49.242Z,94.10
2022-10-26T20:21:17.437Z,94.10
2022-10-26T20:23:45.082Z,94.00
2022-10-26T20:26:19.382Z,94.00
2022-10-26T20:28:48.957Z,94.00
2022-10-26T20:31:16.074Z,94.00
2022-10-26T20:33:43.123Z,94.00
2022-10-26T20:36:10.180Z,94.00
2022-10-26T20:38:38.483Z,93.90
2022-10-26T20:41:07.978Z,93.90
2022-10-26T20:43:39.648Z,93.90
2022-10-26T20:46:10.233Z,94.00
2022-10-26T20:48:38.508Z,94.10
2022-10-26T20:51:13.859Z,94.10
2022-10-26T20:54:26.255Z,94.00
2022-10-26T20:56:56.781Z,94.00
2022-10-26T20:59:40.018Z,94.10
2022-10-26T21:02:09.865Z,94.10
2022-10-26T21:04:36.972Z,94.10
2022-10-26T21:07:04.052Z,94.10
2022-10-26T21:09:34.192Z,94.10
2022-10-26T21:12:04.023Z,94.10
2022-10-26T21:14:31.155Z,94.10
2022-10-26T21:16:58.185Z,94.20
2022-10-26T21:19:25.259Z,94.20
2022-10-26T21:21:52.276Z,94.10
2022-10-26T21:24:19.292Z,94.10
2022-10-26T21:26:46.330Z,94.00
2022-10-26T21:29:13.446Z,94.00
2022-10-26T21:31:40.512Z,94.10
2022-10-26T21:34:07.578Z,93.70
2022-10-26T21:36:34.716Z,93.50
2022-10-26T21:39:01.865Z,93.50
2022-10-26T21:41:29.066Z,93.00
2022-10-26T21:44:03.742Z,92.60
2022-10-26T21:46:38.319Z,92.10
2022-10-26T21:49:05.879Z,92.60
2022-10-26T21:51:33.065Z,91.70
2022-10-26T21:54:00.273Z,92.20
2022-10-26T21:56:27.304Z,92.20
2022-10-26T21:58:54.356Z,92.10
2022-10-26T22:01:22.648Z,92.00
2022-10-26T22:03:50.228Z,92.00
2022-10-26T22:08:47.097Z,92.00
2022-10-26T22:11:16.789Z,91.90
2022-10-26T22:13:44.805Z,92.00
2022-10-26T22:16:18.950Z,92.10
2022-10-26T22:18:46.850Z,92.20
2022-10-26T22:21:15.193Z,92.10
2022-10-26T22:23:43.421Z,92.20
2022-10-26T22:26:18.882Z,92.30
2022-10-26T22:28:47.422Z,92.20
2022-10-26T22:31:17.934Z,92.30
2022-10-26T22:33:45.105Z,92.30
2022-10-26T22:36:14.650Z,92.30
2022-10-26T22:38:42.220Z,92.30
2022-10-26T22:41:10.387Z,92.40
2022-10-26T22:43:38.127Z,92.40
2022-10-26T22:46:07.962Z,92.40
2022-10-26T22:48:35.260Z,92.40
2022-10-26T22:51:10.677Z,92.40
2022-10-26T22:53:37.838Z,92.50
2022-10-26T22:56:06.983Z,92.50
2022-10-26T22:58:35.788Z,92.50
2022-10-26T23:01:14.741Z,92.80
2022-10-26T23:03:42.318Z,92.50
2022-10-26T23:06:12.002Z,92.50
2022-10-26T23:08:39.653Z,92.50
2022-10-26T23:11:10.095Z,92.50
2022-10-26T23:13:37.136Z,92.50
2022-10-26T23:16:09.758Z,92.50
2022-10-26T23:18:36.956Z,92.50
2022-10-26T23:21:04.675Z,92.50
2022-10-26T23:23:32.019Z,92.40
2022-10-26T23:26:03.706Z,92.40
2022-10-26T23:28:30.911Z,92.40
2022-10-26T23:30:58.159Z,92.40
2022-10-26T23:33:25.312Z,92.50
2022-10-26T23:35:52.915Z,92.60
2022-10-26T23:38:20.389Z,92.60
2022-10-26T23:40:52.228Z,92.50
2022-10-26T23:43:19.948Z,92.40
2022-10-26T23:45:47.664Z,92.40
2022-10-26T23:48:15.740Z,92.30
2022-10-26T23:50:46.969Z,92.30
2022-10-26T23:53:15.399Z,92.30
2022-10-26T23:55:46.454Z,92.30
2022-10-26T23:58:14.557Z,92.20
